createdAt,value
2023-05-05T00:00:21.360Z,100446.16
2023-05-05T00:03:24.096Z,100450.69
2023-05-05T00:06:25.600Z,100455.66
2023-05-05T00:09:26.968Z,100454.31
2023-05-05T00:12:28.523Z,100447.63
2023-05-05T00:15:30.052Z,100454.47
2023-05-05T00:18:33.662Z,100459.00
2023-05-05T00:21:35.067Z,100451.22
2023-05-05T00:24:36.631Z,100453.88
2023-05-05T00:27:40.168Z,100456.91
2023-05-05T00:30:42.401Z,100454.81
2023-05-05T00:33:44.958Z,100453.09
2023-05-05T00:36:46.412Z,100462.22
2023-05-05T00:39:47.859Z,100466.56
2023-05-05T00:42:52.275Z,100457.81
2023-05-05T00:46:01.016Z,100452.31
2023-05-05T00:49:02.726Z,100442.59
2023-05-05T00:52:05.297Z,100439.00
2023-05-05T00:55:07.520Z,100438.06
2023-05-05T00:58:09.920Z,100435.59
2023-05-05T01:01:11.979Z,100429.19
2023-05-05T01:04:13.647Z,100434.44
2023-05-05T01:07:36.065Z,100445.69
2023-05-05T01:10:42.874Z,100442.22
2023-05-05T01:13:55.615Z,100431.78
2023-05-05T01:17:02.511Z,100434.38
2023-05-05T01:20:32.502Z,100428.34
2023-05-05T01:24:07.120Z,100430.97
2023-05-05T01:27:37.214Z,100433.41
2023-05-05T01:31:03.186Z,100426.44
2023-05-05T01:34:08.579Z,100432.91
2023-05-05T01:37:15.480Z,100443.69
2023-05-05T01:40:22.548Z,100441.13
2023-05-05T01:43:29.408Z,100442.34
2023-05-05T01:46:33.859Z,100444.22
2023-05-05T01:49:37.077Z,100443.28
2023-05-05T01:52:41.063Z,100440.34
2023-05-05T01:55:43.691Z,100446.44
2023-05-05T01:58:46.479Z,100456.06
2023-05-05T02:01:50.325Z,100459.41
2023-05-05T02:04:53.986Z,100455.03
2023-05-05T02:07:59.022Z,100471.13
2023-05-05T02:11:00.844Z,100471.84
2023-05-05T02:14:03.140Z,100473.53
2023-05-05T02:17:05.027Z,100470.78
2023-05-05T02:20:08.647Z,100482.50
2023-05-05T02:23:10.323Z,100467.91
2023-05-05T02:26:14.362Z,100472.38
2023-05-05T02:29:32.748Z,100475.91
2023-05-05T02:32:37.178Z,100485.47
2023-05-05T02:35:41.562Z,100489.53
2023-05-05T02:38:52.455Z,100484.44
2023-05-05T02:41:55.367Z,100476.31
2023-05-05T02:45:07.744Z,100485.91
2023-05-05T02:48:12.877Z,100483.75
2023-05-05T02:51:15.329Z,100489.66
2023-05-05T02:54:17.298Z,100505.25
2023-05-05T02:57:22.133Z,100495.31
2023-05-05T03:00:52.569Z,100492.03
2023-05-05T03:04:06.482Z,100496.69
2023-05-05T03:07:20.762Z,100493.84
2023-05-05T03:10:30.089Z,100495.38
2023-05-05T03:13:40.322Z,100491.19
2023-05-05T03:16:43.816Z,100479.44
2023-05-05T03:19:47.528Z,100479.28
2023-05-05T03:22:49.410Z,100486.47
2023-05-05T03:25:51.461Z,100471.47
2023-05-05T03:29:06.762Z,100482.63
2023-05-05T03:32:09.753Z,100476.44
2023-05-05T03:35:12.190Z,100486.47
2023-05-05T03:38:13.894Z,100485.63
2023-05-05T03:41:16.865Z,100485.88
2023-05-05T03:44:18.307Z,100489.66
2023-05-05T03:47:19.877Z,100490.81
2023-05-05T03:50:22.173Z,100498.19
2023-05-05T03:53:23.755Z,100496.03
2023-05-05T03:56:26.609Z,100500.41
2023-05-05T03:59:28.073Z,100511.38
2023-05-05T04:02:29.747Z,100511.38
2023-05-05T04:05:31.312Z,100512.50
2023-05-05T04:08:33.428Z,100504.69
2023-05-05T04:11:34.971Z,100501.16
2023-05-05T04:14:36.739Z,100499.03
2023-05-05T04:17:38.274Z,100501.88
2023-05-05T04:20:39.982Z,100510.59
2023-05-05T04:23:41.641Z,100515.56
2023-05-05T04:26:43.144Z,100512.81
2023-05-05T04:29:44.556Z,100512.66
2023-05-05T04:32:46.110Z,100503.63
2023-05-05T04:35:47.749Z,100496.19
2023-05-05T04:38:49.957Z,100506.56
2023-05-05T04:41:52.359Z,100516.13
2023-05-05T04:44:53.971Z,100528.13
2023-05-05T04:47:55.755Z,100524.19
2023-05-05T04:50:57.501Z,100541.09
2023-05-05T04:53:58.947Z,100536.56
2023-05-05T04:57:00.357Z,100534.50
2023-05-05T05:00:04.348Z,100537.28
2023-05-05T05:03:06.228Z,100540.69
2023-05-05T05:06:07.777Z,100531.59
2023-05-05T05:09:11.007Z,100532.97
2023-05-05T05:12:12.437Z,100541.41
2023-05-05T05:15:14.122Z,100536.75
2023-05-05T05:18:16.952Z,100544.66
2023-05-05T05:21:18.883Z,100542.78
2023-05-05T05:24:20.299Z,100548.50
2023-05-05T05:27:21.779Z,100543.03
2023-05-05T05:30:25.422Z,100543.78
2023-05-05T05:33:26.980Z,100552.63
2023-05-05T05:36:31.415Z,100561.91
2023-05-05T05:39:32.917Z,100555.88
2023-05-05T05:42:35.088Z,100555.34
2023-05-05T05:45:37.364Z,100562.63
2023-05-05T05:48:40.742Z,100556.19
2023-05-05T05:51:43.280Z,100566.53
2023-05-05T05:54:44.685Z,100566.84
2023-05-05T05:57:46.167Z,100571.06
2023-05-05T06:00:48.785Z,100573.44
2023-05-05T06:03:50.539Z,100567.91
2023-05-05T06:06:52.138Z,100583.72
2023-05-05T06:09:53.908Z,100590.22
2023-05-05T06:12:55.534Z,100593.72
2023-05-05T06:15:57.358Z,100583.75
2023-05-05T06:18:58.866Z,100580.38
2023-05-05T06:22:00.395Z,100585.66
2023-05-05T06:25:01.870Z,100582.59
2023-05-05T06:28:05.456Z,100581.66
2023-05-05T06:31:06.993Z,100579.31
2023-05-05T06:34:08.541Z,100593.50
2023-05-05T06:37:10.507Z,100594.00
2023-05-05T06:40:12.466Z,100592.28
2023-05-05T06:43:13.842Z,100592.66
2023-05-05T06:46:20.863Z,100586.38
2023-05-05T06:49:22.279Z,100595.56
2023-05-05T06:52:23.722Z,100589.16
2023-05-05T06:55:25.531Z,100582.00
2023-05-05T06:58:27.066Z,100581.59
2023-05-05T07:01:28.635Z,100589.38
2023-05-05T07:04:30.220Z,100591.91
2023-05-05T07:07:32.435Z,100592.81
2023-05-05T07:10:33.856Z,100587.69
2023-05-05T07:13:35.354Z,100591.75
2023-05-05T07:16:37.207Z,100591.84
2023-05-05T07:19:38.708Z,100590.41
2023-05-05T07:22:40.070Z,100597.25
2023-05-05T07:25:41.674Z,100598.53
2023-05-05T07:28:43.904Z,100591.25
2023-05-05T07:31:45.862Z,100591.44
2023-05-05T07:34:47.346Z,100589.66
2023-05-05T07:37:49.308Z,100587.44
2023-05-05T07:40:50.781Z,100581.47
2023-05-05T07:43:52.456Z,100580.56
2023-05-05T07:46:53.836Z,100578.13
2023-05-05T07:49:55.263Z,100581.72
2023-05-05T07:53:06.229Z,100581.50
2023-05-05T07:56:15.587Z,100584.59
2023-05-05T07:59:16.995Z,100590.28
2023-05-05T08:02:18.424Z,100587.28
2023-05-05T08:05:19.905Z,100576.16
2023-05-05T08:08:24.401Z,100578.94
2023-05-05T08:11:27.793Z,100574.97
2023-05-05T08:14:30.787Z,100576.00
2023-05-05T08:17:52.354Z,100579.31
2023-05-05T08:20:54.575Z,100581.94
2023-05-05T08:23:56.035Z,100577.13
2023-05-05T08:26:57.473Z,100575.97
2023-05-05T08:29:59.189Z,100569.38
2023-05-05T08:33:01.073Z,100566.72
2023-05-05T08:36:02.572Z,100573.22
2023-05-05T08:39:04.128Z,100563.75
2023-05-05T08:42:06.211Z,100573.75
2023-05-05T08:45:11.392Z,100569.38
2023-05-05T08:48:13.365Z,100561.06
2023-05-05T08:51:19.612Z,100557.13
2023-05-05T08:54:26.755Z,100559.91
2023-05-05T08:57:41.282Z,100561.00
2023-05-05T09:00:47.275Z,100558.69
2023-05-05T09:03:49.774Z,100549.88
2023-05-05T09:06:51.308Z,100552.84
2023-05-05T09:09:53.273Z,100556.78
2023-05-05T09:12:54.845Z,100554.47
2023-05-05T09:15:56.658Z,100548.78
2023-05-05T09:19:04.687Z,100551.03
2023-05-05T09:22:06.109Z,100553.63
2023-05-05T09:25:10.943Z,100546.00
2023-05-05T09:28:17.275Z,100551.88
2023-05-05T09:31:19.745Z,100553.63
2023-05-05T09:34:21.186Z,100554.47
2023-05-05T09:37:31.779Z,100549.53
2023-05-05T09:40:46.101Z,100549.78
2023-05-05T09:43:51.852Z,100546.06
2023-05-05T09:46:55.175Z,100544.38
2023-05-05T09:49:58.696Z,100534.59
2023-05-05T09:53:02.359Z,100543.38
2023-05-05T09:56:03.905Z,100547.47
2023-05-05T09:59:09.459Z,100540.81
2023-05-05T10:02:15.579Z,100538.88
2023-05-05T10:05:18.308Z,100541.41
2023-05-05T10:08:22.979Z,100546.88
2023-05-05T10:11:24.382Z,100543.09
2023-05-05T10:14:27.444Z,100545.91
2023-05-05T10:17:32.905Z,100546.56
2023-05-05T10:20:38.214Z,100538.84
2023-05-05T10:23:48.386Z,100549.06
2023-05-05T10:26:52.001Z,100540.66
2023-05-05T10:30:04.015Z,100543.69
2023-05-05T10:33:31.929Z,100539.09
2023-05-05T10:36:34.503Z,100536.94
2023-05-05T10:39:37.392Z,100528.88
2023-05-05T10:42:42.518Z,100531.06
2023-05-05T10:45:44.662Z,100523.06
2023-05-05T10:48:56.525Z,100518.94
2023-05-05T10:52:12.197Z,100523.41
2023-05-05T10:55:18.326Z,100522.44
2023-05-05T10:58:38.516Z,100518.59
2023-05-05T11:01:45.862Z,100521.22
2023-05-05T11:05:17.635Z,100518.59
2023-05-05T11:08:26.704Z,100508.53
2023-05-05T11:12:06.545Z,100506.06
2023-05-05T11:15:26.523Z,100498.69
2023-05-05T11:18:38.133Z,100499.03
2023-05-05T11:22:00.636Z,100492.34
2023-05-05T11:25:51.666Z,100484.84
2023-05-05T11:29:03.836Z,100485.72
2023-05-05T11:32:13.022Z,100472.09
2023-05-05T11:35:15.486Z,100464.44
2023-05-05T11:38:19.670Z,100478.84
2023-05-05T11:41:33.414Z,100468.63
2023-05-05T11:44:35.706Z,100461.00
2023-05-05T11:47:37.152Z,100463.06
2023-05-05T11:50:38.908Z,100459.66
2023-05-05T11:53:49.541Z,100467.41
2023-05-05T11:56:53.686Z,100458.56
2023-05-05T12:00:08.068Z,100458.44
2023-05-05T12:03:09.960Z,100456.06
2023-05-05T12:06:11.457Z,100460.91
2023-05-05T12:09:20.708Z,100455.44
2023-05-05T12:12:34.863Z,100449.75
2023-05-05T12:15:36.880Z,100448.91
2023-05-05T12:18:39.411Z,100448.81
2023-05-05T12:21:45.606Z,100449.63
2023-05-05T12:24:55.087Z,100450.00
2023-05-05T12:27:57.249Z,100438.81
2023-05-05T12:30:58.877Z,100435.91
2023-05-05T12:34:01.750Z,100438.00
2023-05-05T12:37:03.240Z,100433.59
2023-05-05T12:40:06.389Z,100431.38
2023-05-05T12:43:08.079Z,100431.03
2023-05-05T12:46:13.578Z,100422.91
2023-05-05T12:49:15.106Z,100426.00
2023-05-05T12:52:17.392Z,100420.88
2023-05-05T12:55:19.657Z,100408.88
2023-05-05T12:58:21.504Z,100408.00
2023-05-05T13:01:22.925Z,100399.94
2023-05-05T13:04:27.219Z,100385.22
2023-05-05T13:07:28.687Z,100394.31
2023-05-05T13:10:31.113Z,100392.41
2023-05-05T13:13:32.548Z,100390.56
2023-05-05T13:16:34.148Z,100391.13
2023-05-05T13:19:41.508Z,100378.19
2023-05-05T13:22:42.913Z,100374.69
2023-05-05T13:25:44.303Z,100377.50
2023-05-05T13:28:45.710Z,100370.66
2023-05-05T13:31:47.322Z,100368.16
2023-05-05T13:34:48.857Z,100365.63
2023-05-05T13:37:50.372Z,100358.56
2023-05-05T13:40:51.815Z,100351.16
2023-05-05T13:43:53.240Z,100347.50
2023-05-05T13:46:54.645Z,100353.44
2023-05-05T13:49:56.230Z,100349.31
2023-05-05T13:52:57.603Z,100349.75
2023-05-05T13:55:59.364Z,100353.72
2023-05-05T13:59:01.180Z,100333.16
2023-05-05T14:02:02.646Z,100339.81
2023-05-05T14:05:04.213Z,100329.03
2023-05-05T14:08:05.641Z,100330.44
2023-05-05T14:11:07.009Z,100323.66
2023-05-05T14:14:08.412Z,100318.53
2023-05-05T14:17:09.994Z,100312.84
2023-05-05T14:20:12.082Z,100308.28
2023-05-05T14:23:13.463Z,100308.56
2023-05-05T14:26:14.865Z,100292.63
2023-05-05T14:29:16.322Z,100298.53
2023-05-05T14:32:17.964Z,100303.88
2023-05-05T14:35:19.442Z,100300.50
2023-05-05T14:38:21.013Z,100312.50
2023-05-05T14:41:22.518Z,100309.47
2023-05-05T14:44:23.934Z,100307.09
2023-05-05T14:47:25.667Z,100302.13
2023-05-05T14:50:27.076Z,100304.75
2023-05-05T14:53:28.593Z,100304.88
2023-05-05T14:56:30.183Z,100305.47
2023-05-05T14:59:31.602Z,100303.47
2023-05-05T15:02:33.013Z,100296.97
2023-05-05T15:05:35.027Z,100300.53
2023-05-05T15:08:38.760Z,100301.50
2023-05-05T15:11:44.932Z,100296.13
2023-05-05T15:14:46.432Z,100302.09
2023-05-05T15:17:47.900Z,100299.97
2023-05-05T15:20:49.369Z,100299.25
2023-05-05T15:23:50.813Z,100292.88
2023-05-05T15:26:52.226Z,100295.16
2023-05-05T15:29:54.344Z,100294.41
2023-05-05T15:32:55.834Z,100292.41
2023-05-05T15:35:57.452Z,100304.28
2023-05-05T15:38:58.831Z,100297.06
2023-05-05T15:42:03.582Z,100313.53
2023-05-05T15:45:06.022Z,100319.28
2023-05-05T15:48:08.144Z,100312.41
2023-05-05T15:51:12.644Z,100320.66
2023-05-05T15:54:14.466Z,100323.19
2023-05-05T15:57:16.302Z,100330.69
2023-05-05T16:00:17.725Z,100339.81
2023-05-05T16:03:19.268Z,100359.56
2023-05-05T16:06:21.918Z,100384.22
2023-05-05T16:09:23.604Z,100403.13
2023-05-05T16:12:24.984Z,100407.50
2023-05-05T16:15:26.346Z,100419.22
2023-05-05T16:18:28.144Z,100423.34
2023-05-05T16:21:29.680Z,100437.72
2023-05-05T16:24:31.065Z,100440.88
2023-05-05T16:27:32.520Z,100451.16
2023-05-05T16:30:33.965Z,100452.16
2023-05-05T16:33:36.242Z,100450.41
2023-05-05T16:36:37.678Z,100452.75
2023-05-05T16:39:40.192Z,100451.53
2023-05-05T16:42:43.761Z,100456.88
2023-05-05T16:45:47.981Z,100463.03
2023-05-05T16:48:49.485Z,100461.13
2023-05-05T16:51:54.495Z,100467.50
2023-05-05T16:54:56.475Z,100470.00
2023-05-05T16:57:57.834Z,100460.22
2023-05-05T17:01:01.770Z,100463.59
2023-05-05T17:04:03.241Z,100459.53
2023-05-05T17:07:04.670Z,100457.16
2023-05-05T17:10:06.843Z,100453.59
2023-05-05T17:13:09.430Z,100441.84
2023-05-05T17:16:11.040Z,100439.94
2023-05-05T17:19:13.589Z,100439.97
2023-05-05T17:22:15.013Z,100428.00
2023-05-05T17:25:16.437Z,100424.78
2023-05-05T17:28:17.821Z,100426.16
2023-05-05T17:31:19.197Z,100433.03
2023-05-05T17:34:20.972Z,100447.72
2023-05-05T17:37:22.360Z,100440.25
2023-05-05T17:40:24.027Z,100449.66
2023-05-05T17:43:25.482Z,100455.69
2023-05-05T17:46:27.257Z,100453.28
2023-05-05T17:49:28.771Z,100454.25
2023-05-05T17:52:30.267Z,100466.56
2023-05-05T17:55:31.720Z,100468.66
2023-05-05T17:58:33.178Z,100466.13
2023-05-05T18:01:35.079Z,100469.16
2023-05-05T18:04:38.238Z,100466.81
2023-05-05T18:07:39.811Z,100466.81
2023-05-05T18:10:41.215Z,100467.53
2023-05-05T18:13:43.189Z,100465.09
2023-05-05T18:16:49.359Z,100463.16
2023-05-05T18:19:50.810Z,100468.03
2023-05-05T18:22:52.287Z,100467.44
2023-05-05T18:25:53.653Z,100470.97
2023-05-05T18:28:55.060Z,100479.63
2023-05-05T18:31:56.717Z,100477.81
2023-05-05T18:34:58.273Z,100473.66
2023-05-05T18:38:00.295Z,100472.16
2023-05-05T18:41:01.717Z,100480.44
2023-05-05T18:44:03.140Z,100475.78
2023-05-05T18:47:04.916Z,100485.53
2023-05-05T18:50:07.382Z,100484.03
2023-05-05T18:53:10.904Z,100486.19
2023-05-05T18:56:12.454Z,100488.19
2023-05-05T18:59:13.849Z,100494.69
2023-05-05T19:02:16.097Z,100505.19
2023-05-05T19:05:18.070Z,100500.63
2023-05-05T19:08:19.554Z,100508.06
2023-05-05T19:11:22.595Z,100504.06
2023-05-05T19:14:24.208Z,100511.53
2023-05-05T19:17:25.638Z,100508.63
2023-05-05T19:20:27.101Z,100522.66
2023-05-05T19:23:28.473Z,100520.84
2023-05-05T19:26:29.853Z,100516.94
2023-05-05T19:29:31.985Z,100518.38
2023-05-05T19:32:33.747Z,100517.72
2023-05-05T19:35:35.321Z,100536.47
2023-05-05T19:38:36.715Z,100537.25
2023-05-05T19:41:38.082Z,100538.75
2023-05-05T19:44:39.608Z,100532.75
2023-05-05T19:47:41.124Z,100543.44
2023-05-05T19:50:42.528Z,100537.22
2023-05-05T19:53:43.962Z,100541.78
2023-05-05T19:56:45.843Z,100537.22
2023-05-05T19:59:49.544Z,100532.84
2023-05-05T20:02:51.042Z,100533.78
2023-05-05T20:05:52.560Z,100531.63
2023-05-05T20:08:55.274Z,100539.63
2023-05-05T20:11:58.878Z,100532.28
2023-05-05T20:15:00.481Z,100532.28
2023-05-05T20:18:01.963Z,100527.22
2023-05-05T20:21:04.126Z,100531.63
2023-05-05T20:24:06.816Z,100527.81
2023-05-05T20:27:09.090Z,100525.44
2023-05-05T20:30:12.029Z,100525.81
2023-05-05T20:33:13.641Z,100535.97
2023-05-05T20:36:15.499Z,100542.19
2023-05-05T20:39:17.183Z,100548.47
2023-05-05T20:42:18.746Z,100551.13
2023-05-05T20:45:20.667Z,100553.69
2023-05-05T20:48:22.320Z,100556.94
2023-05-05T20:51:23.700Z,100562.84
2023-05-05T20:54:25.208Z,100571.50
2023-05-05T20:57:26.658Z,100569.03
2023-05-05T21:00:28.339Z,100566.63
2023-05-05T21:03:29.755Z,100567.50
2023-05-05T21:06:32.127Z,100559.50
2023-05-05T21:09:35.216Z,100573.03
2023-05-05T21:12:37.010Z,100569.94
2023-05-05T21:15:38.611Z,100560.47
2023-05-05T21:18:40.137Z,100563.06
2023-05-05T21:21:41.678Z,100556.56
2023-05-05T21:24:43.106Z,100549.69
2023-05-05T21:27:45.127Z,100554.66
2023-05-05T21:30:54.965Z,100555.63
2023-05-05T21:34:06.349Z,100555.41
2023-05-05T21:37:08.492Z,100553.47
2023-05-05T21:40:13.259Z,100552.75
2023-05-05T21:43:14.828Z,100552.13
2023-05-05T21:46:19.133Z,100548.72
2023-05-05T21:49:20.562Z,100549.66
2023-05-05T21:52:22.016Z,100537.72
2023-05-05T21:55:23.516Z,100545.63
2023-05-05T21:58:25.075Z,100549.69
2023-05-05T22:01:27.053Z,100544.81
2023-05-05T22:04:28.709Z,100551.16
2023-05-05T22:07:31.132Z,100543.94
2023-05-05T22:10:34.379Z,100550.47
2023-05-05T22:13:35.979Z,100549.19
2023-05-05T22:16:38.244Z,100549.19
2023-05-05T22:19:39.725Z,100550.91
2023-05-05T22:22:41.245Z,100548.94
2023-05-05T22:25:44.288Z,100548.50
2023-05-05T22:28:46.115Z,100556.34
2023-05-05T22:31:47.639Z,100552.47
2023-05-05T22:34:49.165Z,100552.13
2023-05-05T22:37:50.556Z,100557.19
2023-05-05T22:40:51.941Z,100553.06
2023-05-05T22:43:53.870Z,100553.06
2023-05-05T22:46:55.389Z,100556.78
2023-05-05T22:49:56.931Z,100556.00
2023-05-05T22:52:58.384Z,100553.25
2023-05-05T22:55:59.770Z,100557.72
2023-05-05T22:59:01.697Z,100558.22
2023-05-05T23:02:03.135Z,100559.72
2023-05-05T23:05:04.909Z,100565.22
2023-05-05T23:08:06.601Z,100564.47
2023-05-05T23:11:07.994Z,100561.28
2023-05-05T23:14:09.388Z,100559.66
2023-05-05T23:17:10.816Z,100560.44
2023-05-05T23:20:12.990Z,100555.38
2023-05-05T23:23:14.393Z,100562.28
2023-05-05T23:26:15.868Z,100560.69
2023-05-05T23:29:17.815Z,100557.22
2023-05-05T23:32:19.264Z,100556.63
2023-05-05T23:35:20.676Z,100564.00
2023-05-05T23:38:22.147Z,100565.88
2023-05-05T23:41:23.565Z,100563.47
2023-05-05T23:44:25.051Z,100557.44
2023-05-05T23:47:26.476Z,100552.28
2023-05-05T23:50:27.874Z,100559.81
2023-05-05T23:53:29.280Z,100565.13
2023-05-05T23:56:30.945Z,100561.72
2023-05-05T23:59:32.487Z,100562.47
